Terminal Aerodrome Forecast
Issued by NWS Charleston, WV

Home | Current Version | Previous Version | Text Only | Print | Product List | Glossary On
Versions: 1 2 3 4 5 6 7 8 9 10 11 12 13 14 15 16 17 18 19 20 21 22
000
FTUS41 KRLX 260819 AAA
TAFCRW
TAF AMD
KCRW 260819Z 2608/2706 00000KT P6SM BKN050
     FM261300 VRB03KT 6SM SHRA BR VCTS OVC035CB
     FM261500 20005KT P6SM BKN050
     FM261800 20007KT P6SM VCTS BKN050CB
     FM270300 VRB03KT P6SM SHRA VCTS BKN040CB=

USA.gov is the U.S. government's official web portal to all federal, state and local government web resources and services.